createdAt,value
2023-05-01T00:00:52.013Z,5.40
2023-05-01T00:06:00.311Z,5.07
2023-05-01T00:11:06.193Z,5.10
2023-05-01T00:16:09.271Z,5.15
2023-05-01T00:21:10.891Z,5.05
2023-05-01T00:26:12.559Z,4.47
2023-05-01T00:31:18.555Z,4.47
2023-05-01T00:36:20.666Z,4.72
2023-05-01T00:41:22.181Z,4.88
2023-05-01T00:46:24.753Z,4.97
2023-05-01T00:51:28.867Z,4.45
2023-05-01T00:56:33.623Z,4.32
2023-05-01T01:01:35.600Z,4.18
2023-05-01T01:06:47.575Z,4.70
2023-05-01T01:12:17.220Z,4.20
2023-05-01T01:17:41.711Z,4.10
2023-05-01T01:22:49.546Z,3.80
2023-05-01T01:28:29.364Z,4.10
2023-05-01T01:33:57.284Z,4.50
2023-05-01T01:39:06.692Z,4.35
2023-05-01T01:44:22.908Z,4.70
2023-05-01T01:49:27.417Z,4.55
2023-05-01T01:54:33.534Z,4.78
2023-05-01T01:59:35.370Z,5.28
2023-05-01T02:04:40.572Z,4.93
2023-05-01T02:09:44.399Z,4.78
2023-05-01T02:14:48.205Z,4.90
2023-05-01T02:19:53.301Z,5.07
2023-05-01T02:24:57.454Z,4.40
2023-05-01T02:29:59.233Z,4.53
2023-05-01T02:35:01.400Z,4.43
2023-05-01T02:40:04.100Z,4.95
2023-05-01T02:45:09.081Z,5.10
2023-05-01T02:50:11.418Z,4.22
2023-05-01T02:55:13.272Z,4.78
2023-05-01T03:00:14.911Z,4.68
2023-05-01T03:05:16.689Z,4.75
2023-05-01T03:10:18.576Z,4.75
2023-05-01T03:15:20.121Z,5.25
2023-05-01T03:20:21.661Z,4.55
2023-05-01T03:25:23.475Z,4.65
2023-05-01T03:30:25.281Z,5.00
2023-05-01T03:35:29.342Z,4.40
2023-05-01T03:40:31.582Z,5.35
2023-05-01T03:46:11.469Z,4.65
2023-05-01T03:51:13.104Z,4.90
2023-05-01T03:56:15.062Z,4.68
2023-05-01T04:01:16.772Z,4.63
2023-05-01T04:06:19.390Z,4.38
2023-05-01T04:11:21.183Z,4.90
2023-05-01T04:16:25.426Z,4.93
2023-05-01T04:21:27.190Z,4.95
2023-05-01T04:26:29.335Z,5.88
2023-05-01T04:31:31.170Z,5.47
2023-05-01T04:36:33.088Z,5.43
2023-05-01T04:41:34.913Z,4.72
2023-05-01T04:46:36.871Z,5.25
2023-05-01T04:51:39.236Z,5.55
2023-05-01T04:56:43.085Z,5.28
2023-05-01T05:01:45.415Z,4.63
2023-05-01T05:06:47.307Z,13.57
2023-05-01T05:11:55.948Z,4.60
2023-05-01T05:16:58.575Z,4.70
2023-05-01T05:22:04.832Z,4.50
2023-05-01T05:27:10.668Z,4.18
2023-05-01T05:32:12.225Z,4.25
2023-05-01T05:37:13.819Z,4.43
2023-05-01T05:42:23.602Z,3.72
2023-05-01T05:47:25.462Z,3.95
2023-05-01T05:52:27.259Z,4.20
2023-05-01T05:57:29.016Z,4.55
2023-05-01T06:02:31.439Z,4.38
2023-05-01T06:07:33.113Z,9.07
2023-05-01T06:12:36.954Z,5.10
2023-05-01T06:17:40.804Z,4.80
2023-05-01T06:22:42.517Z,5.00
2023-05-01T06:27:51.676Z,4.95
2023-05-01T06:32:55.909Z,5.60
2023-05-01T06:37:57.645Z,5.38
2023-05-01T06:42:59.498Z,5.40
2023-05-01T06:48:03.535Z,4.60
2023-05-01T06:53:05.174Z,5.13
2023-05-01T06:58:12.618Z,4.60
2023-05-01T07:03:23.974Z,4.68
2023-05-01T07:08:28.046Z,4.90
2023-05-01T07:13:29.779Z,4.30
2023-05-01T07:18:31.391Z,4.72
2023-05-01T07:23:32.912Z,5.20
2023-05-01T07:28:34.471Z,5.50
2023-05-01T07:33:36.068Z,5.68
2023-05-01T07:38:37.653Z,5.95
2023-05-01T07:43:39.170Z,5.88
2023-05-01T07:48:40.850Z,6.05
2023-05-01T07:53:42.523Z,6.03
2023-05-01T07:58:44.245Z,5.68
2023-05-01T08:03:47.447Z,6.03
2023-05-01T08:08:50.302Z,5.38
2023-05-01T08:13:51.934Z,6.38
2023-05-01T08:18:53.538Z,6.25
2023-05-01T08:23:56.457Z,7.18
2023-05-01T08:28:57.969Z,6.95
2023-05-01T08:33:59.472Z,6.78
2023-05-01T08:39:01.147Z,5.93
2023-05-01T08:44:03.340Z,6.80
2023-05-01T08:49:06.230Z,7.50
2023-05-01T08:54:09.528Z,6.97
2023-05-01T08:59:12.966Z,6.38
2023-05-01T09:04:15.551Z,7.05
2023-05-01T09:09:17.142Z,7.57
2023-05-01T09:14:18.684Z,7.63
2023-05-01T09:19:20.258Z,5.95
2023-05-01T09:24:27.614Z,6.63
2023-05-01T09:29:41.247Z,7.03
2023-05-01T09:34:45.678Z,5.97
2023-05-01T09:39:47.284Z,6.43
2023-05-01T09:44:48.879Z,6.07
2023-05-01T09:49:50.438Z,5.78
2023-05-01T09:55:12.411Z,5.55
2023-05-01T10:00:15.755Z,5.43
2023-05-01T10:05:18.184Z,5.68
2023-05-01T10:10:24.199Z,5.93
2023-05-01T10:15:37.131Z,5.55
2023-05-01T10:20:38.760Z,5.95
2023-05-01T10:25:42.185Z,5.32
2023-05-01T10:30:46.424Z,5.28
2023-05-01T10:35:57.330Z,5.15
2023-05-01T10:40:58.943Z,5.55
2023-05-01T10:46:09.569Z,5.53
2023-05-01T10:51:12.466Z,5.15
2023-05-01T10:56:27.114Z,5.65
2023-05-01T11:01:33.486Z,5.57
2023-05-01T11:06:36.445Z,6.90
2023-05-01T11:11:38.092Z,6.63
2023-05-01T11:16:39.915Z,6.32
2023-05-01T11:21:42.097Z,5.30
2023-05-01T11:26:44.546Z,5.20
2023-05-01T11:31:48.343Z,4.75
2023-05-01T11:36:51.123Z,5.43
2023-05-01T11:42:06.498Z,4.43
2023-05-01T11:47:10.569Z,4.05
2023-05-01T11:52:12.458Z,4.30
2023-05-01T11:57:14.085Z,4.50
2023-05-01T12:02:22.180Z,4.25
2023-05-01T12:07:24.953Z,3.85
2023-05-01T12:12:26.617Z,4.28
2023-05-01T12:17:30.222Z,4.55
2023-05-01T12:22:32.051Z,4.57
2023-05-01T12:27:45.646Z,4.18
2023-05-01T12:32:47.237Z,4.63
2023-05-01T12:37:48.958Z,5.07
2023-05-01T12:42:55.933Z,5.55
2023-05-01T12:47:57.543Z,6.05
2023-05-01T12:53:02.944Z,6.97
2023-05-01T12:58:05.322Z,6.50
2023-05-01T13:03:06.973Z,6.13
2023-05-01T13:08:08.678Z,6.32
2023-05-01T13:13:10.334Z,6.60
2023-05-01T13:18:12.364Z,7.03
2023-05-01T13:23:13.960Z,5.60
2023-05-01T13:28:19.683Z,6.35
2023-05-01T13:33:21.584Z,6.22
2023-05-01T13:38:24.993Z,5.10
2023-05-01T13:43:26.832Z,5.47
2023-05-01T13:48:30.737Z,6.15
2023-05-01T13:53:32.489Z,7.57
2023-05-01T13:58:34.510Z,5.82
2023-05-01T14:03:41.071Z,7.20
2023-05-01T14:08:44.460Z,6.57
2023-05-01T14:13:47.661Z,5.60
2023-05-01T14:18:49.330Z,6.55
2023-05-01T14:23:55.079Z,7.32
2023-05-01T14:28:56.904Z,7.50
2023-05-01T14:34:04.245Z,7.95
2023-05-01T14:39:05.769Z,7.18
2023-05-01T14:44:12.750Z,5.53
2023-05-01T14:49:20.157Z,4.60
2023-05-01T14:54:21.904Z,2.53
2023-05-01T14:59:24.598Z,1.35
2023-05-01T15:04:26.316Z,1.70
2023-05-01T15:09:28.165Z,1.80
2023-05-01T15:14:29.687Z,2.10
2023-05-01T15:19:32.592Z,1.92
2023-05-01T15:24:34.346Z,2.05
2023-05-01T15:29:36.023Z,2.25
2023-05-01T15:34:37.844Z,2.03
2023-05-01T15:39:40.392Z,1.70
2023-05-01T15:44:42.169Z,1.17
2023-05-01T15:49:43.674Z,1.20
2023-05-01T15:54:48.257Z,1.50
2023-05-01T15:59:53.802Z,1.40
2023-05-01T16:04:55.389Z,1.05
2023-05-01T16:09:58.249Z,1.42
2023-05-01T16:15:03.377Z,1.67
2023-05-01T16:20:10.921Z,1.95
2023-05-01T16:25:12.823Z,2.25
2023-05-01T16:30:14.846Z,1.60
2023-05-01T16:35:18.429Z,1.80
2023-05-01T16:40:21.583Z,2.00
2023-05-01T16:45:23.179Z,2.50
2023-05-01T16:50:24.927Z,2.50
2023-05-01T16:55:26.728Z,2.55
2023-05-01T17:00:29.381Z,3.05
2023-05-01T17:05:30.920Z,4.05
2023-05-01T17:10:32.464Z,3.88
2023-05-01T17:15:34.017Z,3.83
2023-05-01T17:20:35.851Z,3.88
2023-05-01T17:25:37.425Z,4.47
2023-05-01T17:30:39.041Z,4.55
2023-05-01T17:35:40.685Z,4.10
2023-05-01T17:40:42.616Z,4.80
2023-05-01T17:45:45.469Z,5.50
2023-05-01T17:50:47.362Z,5.35
2023-05-01T17:55:48.913Z,5.60
2023-05-01T18:00:50.458Z,4.75
2023-05-01T18:05:52.053Z,5.13
2023-05-01T18:10:53.622Z,4.20
2023-05-01T18:15:55.969Z,5.05
2023-05-01T18:20:57.565Z,5.72
2023-05-01T18:25:59.799Z,5.35
2023-05-01T18:31:01.476Z,5.05
2023-05-01T18:36:03.272Z,5.85
2023-05-01T18:41:04.764Z,5.63
2023-05-01T18:46:06.351Z,5.20
2023-05-01T18:51:09.509Z,5.22
2023-05-01T18:56:11.403Z,5.20
2023-05-01T19:01:12.984Z,6.63
2023-05-01T19:06:14.596Z,6.57
2023-05-01T19:11:16.492Z,6.80
2023-05-01T19:16:18.069Z,7.35
2023-05-01T19:21:19.735Z,6.72
2023-05-01T19:26:21.985Z,6.68
2023-05-01T19:31:25.249Z,6.82
2023-05-01T19:36:26.944Z,7.18
2023-05-01T19:41:28.438Z,8.57
2023-05-01T19:46:30.005Z,9.13
2023-05-01T19:51:31.587Z,8.18
2023-05-01T19:56:33.242Z,7.15
2023-05-01T20:01:34.912Z,7.15
2023-05-01T20:06:36.569Z,7.80
2023-05-01T20:11:38.155Z,8.02
2023-05-01T20:16:39.722Z,7.22
2023-05-01T20:21:41.292Z,6.82
2023-05-01T20:26:42.811Z,6.85
2023-05-01T20:31:44.445Z,6.07
2023-05-01T20:36:46.033Z,5.63
2023-05-01T20:41:48.179Z,5.65
2023-05-01T20:46:49.802Z,5.80
2023-05-01T20:51:51.478Z,7.90
2023-05-01T20:56:53.163Z,7.38
2023-05-01T21:01:54.911Z,6.30
2023-05-01T21:06:57.718Z,5.60
2023-05-01T21:11:59.598Z,6.57
2023-05-01T21:17:01.262Z,6.53
2023-05-01T21:22:14.144Z,5.78
2023-05-01T21:27:15.962Z,6.35
2023-05-01T21:32:17.571Z,6.53
2023-05-01T21:37:19.125Z,6.28
2023-05-01T21:42:20.889Z,6.70
2023-05-01T21:47:22.534Z,7.35
2023-05-01T21:52:24.714Z,6.60
2023-05-01T21:57:26.239Z,6.38
2023-05-01T22:02:40.634Z,6.07
2023-05-01T22:07:43.978Z,6.60
2023-05-01T22:12:46.197Z,6.97
2023-05-01T22:17:47.763Z,6.75
2023-05-01T22:22:49.636Z,7.53
2023-05-01T22:27:51.222Z,8.07
2023-05-01T22:32:52.851Z,6.82
2023-05-01T22:37:54.555Z,7.75
2023-05-01T22:42:56.206Z,7.45
2023-05-01T22:47:57.953Z,7.93
2023-05-01T22:53:00.427Z,7.63
2023-05-01T22:58:02.051Z,7.28
2023-05-01T23:03:04.099Z,8.52
2023-05-01T23:08:06.187Z,9.73
2023-05-01T23:13:22.103Z,10.07
2023-05-01T23:18:25.799Z,8.02
2023-05-01T23:23:30.844Z,8.15
2023-05-01T23:28:32.418Z,8.10
2023-05-01T23:33:36.941Z,7.68
2023-05-01T23:38:39.830Z,7.95
2023-05-01T23:43:41.852Z,7.60
2023-05-01T23:48:43.458Z,7.57
2023-05-01T23:53:44.984Z,7.68
2023-05-01T23:58:46.489Z,8.68
